createdAt,value
2019-06-07T00:00:55.671Z,4.43
2019-06-07T00:03:29.501Z,4.07
2019-06-07T00:05:52.285Z,3.93
2019-06-07T00:08:24.857Z,4.20
2019-06-07T00:10:48.751Z,5.17
2019-06-07T00:13:18.779Z,5.10
2019-06-07T00:15:44.841Z,5.40
2019-06-07T00:18:14.921Z,7.73
2019-06-07T00:20:40.667Z,6.10
2019-06-07T00:23:08.668Z,6.10
2019-06-07T00:25:37.304Z,6.90
2019-06-07T00:28:04.211Z,7.03
2019-06-07T00:30:42.218Z,6.37
2019-06-07T00:33:00.250Z,6.67
2019-06-07T00:35:27.268Z,5.90
2019-06-07T00:37:54.266Z,6.23
2019-06-07T00:40:31.499Z,5.13
2019-06-07T00:42:51.077Z,5.07
2019-06-07T00:45:18.991Z,5.37
2019-06-07T00:47:46.763Z,5.57
2019-06-07T00:50:16.195Z,5.93
2019-06-07T00:53:14.009Z,5.63
2019-06-07T00:55:14.275Z,6.03
2019-06-07T00:57:41.415Z,4.60
2019-06-07T01:00:08.675Z,4.93
2019-06-07T01:02:35.625Z,4.63
2019-06-07T01:05:02.795Z,4.93
2019-06-07T01:07:30.024Z,5.67
2019-06-07T01:09:57.204Z,6.73
2019-06-07T01:12:26.870Z,6.47
2019-06-07T01:14:52.861Z,5.27
2019-06-07T01:17:39.922Z,5.40
2019-06-07T01:19:52.735Z,5.27
2019-06-07T01:22:20.637Z,5.60
2019-06-07T01:24:48.861Z,5.67
2019-06-07T01:27:17.082Z,6.07
2019-06-07T01:29:44.853Z,5.90
2019-06-07T01:32:12.133Z,5.80
2019-06-07T01:34:39.225Z,5.50
2019-06-07T01:37:06.109Z,5.50
2019-06-07T01:39:33.518Z,7.27
2019-06-07T01:42:00.357Z,5.77
2019-06-07T01:44:28.604Z,7.30
2019-06-07T01:46:56.585Z,5.33
2019-06-07T01:49:26.610Z,5.60
2019-06-07T01:51:52.585Z,6.00
2019-06-07T01:54:54.352Z,6.00
2019-06-07T01:56:48.710Z,6.63
2019-06-07T01:59:17.661Z,6.33
2019-06-07T02:01:45.157Z,6.47
2019-06-07T02:04:12.275Z,6.63
2019-06-07T02:06:40.153Z,6.67
2019-06-07T02:09:07.567Z,7.60
2019-06-07T02:11:34.362Z,7.20
2019-06-07T02:14:01.772Z,6.97
2019-06-07T02:16:32.427Z,6.67
2019-06-07T02:19:02.107Z,6.77
2019-06-07T02:21:30.454Z,7.23
2019-06-07T02:23:56.033Z,7.60
2019-06-07T02:26:25.320Z,7.43
2019-06-07T02:28:52.131Z,7.40
2019-06-07T02:31:19.325Z,6.93
2019-06-07T02:33:46.503Z,7.37
2019-06-07T02:36:13.778Z,7.60
2019-06-07T02:38:40.799Z,6.40
2019-06-07T02:41:08.411Z,7.40
2019-06-07T02:43:37.248Z,6.63
2019-06-07T02:46:25.011Z,7.10
2019-06-07T02:48:39.846Z,7.90
2019-06-07T02:51:03.819Z,7.37
2019-06-07T02:53:33.666Z,7.47
2019-06-07T02:56:34.793Z,7.80
2019-06-07T02:58:32.512Z,7.40
2019-06-07T03:01:06.687Z,7.47
2019-06-07T03:03:30.023Z,8.00
2019-06-07T03:05:56.379Z,8.53
2019-06-07T03:08:23.494Z,8.63
2019-06-07T03:10:50.421Z,8.83
2019-06-07T03:13:18.412Z,8.50
2019-06-07T03:15:50.179Z,8.13
2019-06-07T03:18:36.253Z,8.10
2019-06-07T03:21:05.649Z,8.30
2019-06-07T03:23:34.381Z,8.13
2019-06-07T03:26:03.136Z,8.47
2019-06-07T03:28:34.245Z,8.37
2019-06-07T03:31:02.741Z,8.37
2019-06-07T03:33:29.463Z,8.70
2019-06-07T03:35:57.322Z,8.77
2019-06-07T03:38:24.451Z,8.20
2019-06-07T03:40:51.440Z,8.53
2019-06-07T03:43:18.430Z,8.80
2019-06-07T03:45:45.527Z,8.50
2019-06-07T03:48:12.970Z,9.13
2019-06-07T03:50:42.438Z,7.83
2019-06-07T03:53:09.105Z,8.80
2019-06-07T03:55:39.084Z,8.50
2019-06-07T04:00:36.647Z,8.60
2019-06-07T04:03:02.961Z,9.07
2019-06-07T04:05:32.899Z,8.73
2019-06-07T04:07:59.382Z,8.47
2019-06-07T04:10:44.868Z,9.00
2019-06-07T04:12:55.480Z,9.07
2019-06-07T04:15:22.340Z,9.27
2019-06-07T04:18:01.477Z,8.40
2019-06-07T04:20:18.712Z,8.63
2019-06-07T04:22:45.594Z,9.50
2019-06-07T04:25:14.499Z,10.10
2019-06-07T04:27:41.772Z,9.13
2019-06-07T04:30:09.503Z,9.00
2019-06-07T04:32:39.561Z,8.97
2019-06-07T04:35:05.664Z,10.03
2019-06-07T04:37:33.455Z,9.37
2019-06-07T04:40:01.852Z,9.40
2019-06-07T04:42:34.408Z,9.47
2019-06-07T04:44:59.568Z,9.10
2019-06-07T04:47:27.228Z,10.00
2019-06-07T04:49:54.658Z,9.77
2019-06-07T04:52:21.692Z,9.27
2019-06-07T04:54:48.825Z,9.60
2019-06-07T04:57:16.086Z,9.33
2019-06-07T05:00:11.012Z,10.40
2019-06-07T05:02:11.866Z,10.03
2019-06-07T05:04:39.923Z,11.60
2019-06-07T05:07:07.817Z,9.57
2019-06-07T05:09:37.580Z,10.00
2019-06-07T05:12:03.609Z,9.73
2019-06-07T05:14:32.560Z,10.10
2019-06-07T05:16:59.393Z,9.37
2019-06-07T05:19:26.352Z,10.27
2019-06-07T05:22:04.029Z,9.33
2019-06-07T05:24:22.732Z,9.90
2019-06-07T05:26:49.686Z,10.07
2019-06-07T05:29:16.773Z,10.43
2019-06-07T05:31:45.307Z,10.07
2019-06-07T05:34:12.872Z,10.07
2019-06-07T05:36:44.258Z,11.30
2019-06-07T05:39:09.469Z,10.77
2019-06-07T05:41:39.291Z,10.50
2019-06-07T05:44:12.878Z,10.30
2019-06-07T05:46:38.553Z,11.73
2019-06-07T05:49:03.692Z,11.37
2019-06-07T05:51:32.197Z,10.70
2019-06-07T05:54:00.172Z,11.23
2019-06-07T05:56:27.036Z,10.33
2019-06-07T05:58:53.903Z,11.10
2019-06-07T06:03:50.182Z,12.10
2019-06-07T06:06:17.403Z,12.13
2019-06-07T06:08:47.574Z,12.00
2019-06-07T06:11:13.623Z,12.70
2019-06-07T06:14:01.552Z,12.00
2019-06-07T06:16:09.427Z,13.87
2019-06-07T06:18:37.764Z,12.50
2019-06-07T06:21:18.850Z,12.63
2019-06-07T06:23:34.323Z,14.17
2019-06-07T06:26:01.273Z,13.70
2019-06-07T06:28:28.413Z,13.67
2019-06-07T06:30:55.875Z,13.87
2019-06-07T06:33:33.752Z,12.37
2019-06-07T06:35:52.709Z,13.43
2019-06-07T06:38:20.967Z,13.57
2019-06-07T06:40:59.145Z,13.87
2019-06-07T06:43:18.563Z,13.30
2019-06-07T06:45:49.768Z,14.37
2019-06-07T06:48:16.239Z,15.30
2019-06-07T06:50:46.736Z,14.13
2019-06-07T06:53:15.352Z,15.23
2019-06-07T06:55:44.604Z,15.27
2019-06-07T06:58:16.141Z,15.27
2019-06-07T07:01:01.959Z,15.10
2019-06-07T07:05:52.750Z,14.60
2019-06-07T07:08:16.993Z,15.20
2019-06-07T07:10:46.005Z,13.33
2019-06-07T07:13:13.673Z,13.73
2019-06-07T07:15:42.819Z,14.47
2019-06-07T07:18:09.951Z,12.70
2019-06-07T07:20:36.933Z,13.30
2019-06-07T07:23:03.878Z,12.97
2019-06-07T07:25:30.868Z,12.80
2019-06-07T07:27:58.335Z,13.77
2019-06-07T07:30:47.107Z,12.67
2019-06-07T07:33:14.441Z,11.83
2019-06-07T07:36:03.189Z,12.20
2019-06-07T07:38:10.610Z,12.57
2019-06-07T07:43:06.743Z,12.67
2019-06-07T07:45:33.645Z,12.37
2019-06-07T07:48:14.869Z,12.13
2019-06-07T07:50:29.785Z,12.40
2019-06-07T07:53:00.721Z,13.20
2019-06-07T07:55:26.958Z,12.07
2019-06-07T07:58:01.135Z,13.47
2019-06-07T08:00:50.046Z,12.10
2019-06-07T08:02:58.500Z,13.07
2019-06-07T08:05:28.963Z,12.47
2019-06-07T08:07:53.971Z,13.00
2019-06-07T08:10:20.828Z,13.77
2019-06-07T08:13:09.032Z,15.10
2019-06-07T08:15:16.994Z,13.40
2019-06-07T08:17:44.161Z,14.47
2019-06-07T08:20:11.439Z,13.77
2019-06-07T08:22:38.556Z,12.87
2019-06-07T08:25:06.323Z,14.47
2019-06-07T08:27:33.786Z,14.60
2019-06-07T08:30:25.969Z,14.20
2019-06-07T08:32:29.707Z,13.90
2019-06-07T08:35:03.349Z,13.60
2019-06-07T08:38:13.171Z,13.37
2019-06-07T08:39:56.748Z,14.60
2019-06-07T08:42:36.559Z,13.63
2019-06-07T08:44:54.336Z,13.50
2019-06-07T08:47:21.857Z,13.53
2019-06-07T08:49:50.961Z,14.17
2019-06-07T08:52:17.911Z,13.73
2019-06-07T08:54:44.828Z,12.83
2019-06-07T08:57:20.398Z,15.33
2019-06-07T08:59:41.331Z,13.80
2019-06-07T09:02:22.936Z,14.37
2019-06-07T09:04:37.150Z,13.90
2019-06-07T09:07:14.678Z,14.63
2019-06-07T09:09:33.213Z,14.30
2019-06-07T09:12:08.083Z,14.90
2019-06-07T09:14:29.598Z,14.17
2019-06-07T09:17:01.256Z,14.93
2019-06-07T09:19:26.983Z,14.50
2019-06-07T09:21:54.593Z,15.40
2019-06-07T09:24:23.700Z,16.30
2019-06-07T09:26:51.568Z,15.47
2019-06-07T09:29:19.264Z,16.23
2019-06-07T09:31:53.177Z,15.77
2019-06-07T09:34:16.944Z,15.60
2019-06-07T09:36:44.264Z,15.97
2019-06-07T09:39:12.686Z,15.73
2019-06-07T09:41:49.596Z,15.60
2019-06-07T09:44:21.369Z,16.13
2019-06-07T09:46:38.826Z,15.27
2019-06-07T09:49:18.234Z,16.17
2019-06-07T09:51:35.814Z,17.37
2019-06-07T09:54:06.887Z,17.03
2019-06-07T09:56:32.941Z,15.33
2019-06-07T09:59:06.052Z,16.70
2019-06-07T10:01:30.231Z,16.77
2019-06-07T10:03:58.762Z,17.07
2019-06-07T10:06:26.653Z,17.90
2019-06-07T10:10:07.087Z,16.37
2019-06-07T10:11:23.192Z,16.80
2019-06-07T10:13:50.668Z,16.93
2019-06-07T10:16:18.420Z,16.60
2019-06-07T10:18:45.675Z,16.13
2019-06-07T10:21:15.237Z,16.70
2019-06-07T10:23:46.664Z,17.63
2019-06-07T10:26:14.635Z,16.53
2019-06-07T10:28:42.158Z,17.43
2019-06-07T10:31:11.470Z,16.80
2019-06-07T10:33:39.756Z,17.03
2019-06-07T10:36:15.120Z,17.27
2019-06-07T10:38:43.273Z,17.83
2019-06-07T10:41:11.863Z,17.37
2019-06-07T10:43:39.218Z,15.63
2019-06-07T10:46:07.701Z,15.67
2019-06-07T10:48:34.866Z,16.17
2019-06-07T10:51:02.225Z,16.63
2019-06-07T10:53:29.732Z,16.63
2019-06-07T10:55:56.742Z,15.17
2019-06-07T10:58:23.974Z,16.40
2019-06-07T11:00:51.152Z,16.27
2019-06-07T11:03:18.612Z,14.93
2019-06-07T11:05:45.802Z,16.00
2019-06-07T11:08:13.724Z,17.03
2019-06-07T11:10:41.997Z,15.83
2019-06-07T11:13:10.378Z,15.47
2019-06-07T11:15:38.118Z,16.90
2019-06-07T11:18:06.215Z,16.30
2019-06-07T11:20:33.382Z,14.87
2019-06-07T11:23:01.169Z,15.63
2019-06-07T11:25:28.561Z,15.90
2019-06-07T11:27:55.790Z,14.20
2019-06-07T11:30:22.878Z,13.70
2019-06-07T11:32:49.835Z,14.47
2019-06-07T11:35:17.163Z,13.07
2019-06-07T11:37:44.171Z,12.77
2019-06-07T11:40:34.818Z,15.17
2019-06-07T11:42:40.566Z,10.50
2019-06-07T11:45:08.289Z,11.10
2019-06-07T11:47:36.023Z,12.13
2019-06-07T11:50:04.218Z,11.87
2019-06-07T11:52:31.100Z,11.80
2019-06-07T11:54:57.996Z,13.30
2019-06-07T11:57:25.167Z,12.57
2019-06-07T11:59:52.238Z,13.30
2019-06-07T12:02:19.611Z,12.07
2019-06-07T12:04:46.856Z,11.10
2019-06-07T12:07:15.365Z,9.20
2019-06-07T12:09:55.450Z,13.17
2019-06-07T12:12:12.519Z,11.83
2019-06-07T12:14:39.736Z,14.37
2019-06-07T12:17:06.772Z,12.80
2019-06-07T12:19:34.283Z,13.30
2019-06-07T12:22:01.335Z,12.40
2019-06-07T12:24:28.971Z,11.15
2019-06-07T12:26:56.198Z,11.20
2019-06-07T12:29:23.473Z,9.07
2019-06-07T12:31:50.796Z,12.03
2019-06-07T12:34:17.968Z,11.73
2019-06-07T12:36:44.992Z,12.80
2019-06-07T12:39:12.137Z,14.53
2019-06-07T12:41:39.731Z,12.10
2019-06-07T12:44:06.796Z,11.60
2019-06-07T12:46:33.909Z,8.15
2019-06-07T12:49:01.010Z,7.03
2019-06-07T12:51:28.263Z,6.85
2019-06-07T12:53:55.721Z,6.97
2019-06-07T12:56:24.098Z,5.72
2019-06-07T12:58:52.329Z,6.30
2019-06-07T13:01:20.836Z,7.85
2019-06-07T13:03:47.996Z,6.58
2019-06-07T13:06:15.396Z,6.40
2019-06-07T13:08:42.725Z,6.97
2019-06-07T13:11:15.874Z,5.55
2019-06-07T13:13:38.663Z,6.42
2019-06-07T13:16:06.142Z,5.03
2019-06-07T13:18:33.365Z,4.45
2019-06-07T13:21:00.352Z,5.00
2019-06-07T13:23:28.819Z,4.00
2019-06-07T13:25:56.192Z,5.37
2019-06-07T13:28:24.764Z,4.42
2019-06-07T13:30:51.950Z,5.42
2019-06-07T13:33:19.289Z,4.75
2019-06-07T13:35:46.657Z,4.78
2019-06-07T13:38:24.608Z,5.28
2019-06-07T13:40:51.777Z,4.45
2019-06-07T13:43:19.275Z,5.85
2019-06-07T13:45:46.319Z,5.03
2019-06-07T13:48:13.512Z,4.35
2019-06-07T13:50:40.799Z,4.33
2019-06-07T13:53:07.846Z,4.10
2019-06-07T13:55:34.659Z,6.00
2019-06-07T13:58:01.715Z,3.85
2019-06-07T14:00:29.077Z,3.22
2019-06-07T14:02:55.878Z,4.03
2019-06-07T14:05:23.060Z,4.60
2019-06-07T14:07:50.512Z,5.00
2019-06-07T14:10:17.271Z,4.05
2019-06-07T14:12:44.372Z,3.98
2019-06-07T14:15:12.806Z,3.95
2019-06-07T14:17:39.915Z,3.30
2019-06-07T14:20:07.306Z,3.55
2019-06-07T14:22:34.401Z,3.37
2019-06-07T14:25:01.421Z,5.10
2019-06-07T14:27:29.719Z,3.83
2019-06-07T14:29:56.996Z,3.25
2019-06-07T14:32:24.919Z,2.90
2019-06-07T14:34:52.297Z,3.05
2019-06-07T14:37:19.387Z,3.77
2019-06-07T14:39:46.565Z,3.45
2019-06-07T14:42:13.540Z,3.00
2019-06-07T14:44:40.519Z,5.65
2019-06-07T14:47:07.944Z,2.60
2019-06-07T14:49:35.006Z,4.60
2019-06-07T14:52:01.811Z,3.17
2019-06-07T14:54:32.166Z,3.52
2019-06-07T14:56:57.918Z,4.25
2019-06-07T14:59:26.140Z,3.50
2019-06-07T15:01:53.380Z,3.67
2019-06-07T15:04:20.637Z,2.72
2019-06-07T15:06:47.525Z,2.25
2019-06-07T15:09:14.498Z,2.60
2019-06-07T15:11:41.742Z,4.37
2019-06-07T15:14:09.159Z,2.62
2019-06-07T15:16:35.952Z,3.55
2019-06-07T15:19:03.527Z,3.58
2019-06-07T15:21:30.839Z,7.87
2019-06-07T15:24:00.706Z,3.67
2019-06-07T15:26:28.330Z,5.33
2019-06-07T15:28:55.638Z,4.17
2019-06-07T15:31:22.576Z,5.58
2019-06-07T15:33:50.209Z,5.92
2019-06-07T15:36:17.577Z,4.47
2019-06-07T15:38:44.856Z,4.53
2019-06-07T15:41:12.000Z,4.85
2019-06-07T15:43:39.450Z,5.33
2019-06-07T15:46:06.838Z,5.83
2019-06-07T15:48:34.075Z,4.97
2019-06-07T15:51:01.382Z,4.92
2019-06-07T15:53:28.625Z,4.80
2019-06-07T15:55:56.551Z,6.05
2019-06-07T15:58:23.696Z,5.12
2019-06-07T16:00:50.575Z,4.10
2019-06-07T16:03:17.682Z,4.30
2019-06-07T16:05:44.657Z,5.00
2019-06-07T16:08:11.590Z,6.62
2019-06-07T16:10:38.898Z,4.55
2019-06-07T16:13:06.504Z,4.37
2019-06-07T16:15:34.731Z,4.58
2019-06-07T16:18:02.550Z,4.53
2019-06-07T16:20:29.708Z,3.83
2019-06-07T16:22:56.703Z,6.00
2019-06-07T16:25:23.838Z,4.45
2019-06-07T16:27:51.251Z,3.75
2019-06-07T16:30:18.392Z,2.75
2019-06-07T16:32:46.340Z,4.28
2019-06-07T16:35:13.532Z,4.53
2019-06-07T16:37:41.354Z,3.08
2019-06-07T16:40:10.057Z,2.83
2019-06-07T16:42:38.349Z,2.08
2019-06-07T16:45:06.008Z,4.60
2019-06-07T16:47:36.848Z,1.52
2019-06-07T16:50:02.027Z,4.67
2019-06-07T16:52:28.918Z,2.15
2019-06-07T16:54:55.925Z,1.62
2019-06-07T16:57:22.870Z,2.92
2019-06-07T16:59:50.889Z,2.45
2019-06-07T17:02:18.194Z,4.17
2019-06-07T17:04:45.704Z,5.33
2019-06-07T17:07:12.928Z,2.73
2019-06-07T17:09:40.113Z,2.43
2019-06-07T17:12:07.072Z,7.25
2019-06-07T17:14:34.194Z,3.42
2019-06-07T17:17:01.123Z,4.60
2019-06-07T17:19:28.232Z,5.25
2019-06-07T17:21:55.435Z,5.33
2019-06-07T17:24:26.510Z,3.30
2019-06-07T17:26:51.663Z,7.05
2019-06-07T17:29:18.724Z,2.10
2019-06-07T17:31:46.425Z,7.07
2019-06-07T17:34:13.499Z,12.35
2019-06-07T17:36:40.477Z,7.10
2019-06-07T17:39:07.706Z,5.77
2019-06-07T17:41:50.626Z,4.33
2019-06-07T17:44:03.899Z,3.57
2019-06-07T17:46:31.107Z,4.27
2019-06-07T17:48:58.427Z,3.60
2019-06-07T17:51:25.803Z,4.40
2019-06-07T17:53:52.584Z,5.03
2019-06-07T17:56:19.687Z,4.43
2019-06-07T17:58:46.921Z,5.70
2019-06-07T18:01:14.197Z,3.50
2019-06-07T18:03:42.987Z,2.73
2019-06-07T18:06:09.965Z,3.63
2019-06-07T18:08:36.940Z,2.47
2019-06-07T18:11:03.929Z,3.60
2019-06-07T18:13:31.179Z,2.60
2019-06-07T18:15:59.855Z,3.30
2019-06-07T18:18:27.193Z,3.30
2019-06-07T18:20:55.641Z,3.03
2019-06-07T18:23:23.143Z,2.33
2019-06-07T18:25:50.540Z,4.60
2019-06-07T18:28:17.661Z,3.43
2019-06-07T18:30:46.431Z,5.73
2019-06-07T18:33:13.623Z,3.67
2019-06-07T18:35:40.761Z,3.40
2019-06-07T18:38:10.706Z,4.57
2019-06-07T18:40:36.863Z,6.07
2019-06-07T18:43:04.225Z,4.97
2019-06-07T18:45:31.299Z,2.13
2019-06-07T18:47:58.467Z,4.43
2019-06-07T18:50:25.267Z,4.50
2019-06-07T18:52:52.689Z,3.07
2019-06-07T18:55:19.942Z,3.23
2019-06-07T18:57:48.133Z,5.17
2019-06-07T19:00:15.565Z,5.63
2019-06-07T19:02:42.761Z,4.63
2019-06-07T19:05:10.213Z,4.13
2019-06-07T19:07:37.095Z,3.30
2019-06-07T19:10:05.528Z,2.17
2019-06-07T19:12:32.495Z,2.87
2019-06-07T19:14:59.684Z,3.33
2019-06-07T19:17:28.374Z,2.70
2019-06-07T19:19:56.219Z,2.53
2019-06-07T19:22:23.513Z,2.37
2019-06-07T19:24:52.020Z,2.27
2019-06-07T19:27:19.595Z,4.90
2019-06-07T19:29:46.867Z,3.17
2019-06-07T19:32:14.014Z,1.43
2019-06-07T19:34:40.887Z,1.93
2019-06-07T19:37:07.778Z,3.33
2019-06-07T19:39:35.343Z,2.53
2019-06-07T19:42:02.293Z,1.67
2019-06-07T19:44:29.891Z,1.37
2019-06-07T19:46:58.442Z,1.60
2019-06-07T19:49:25.791Z,2.20
2019-06-07T19:51:53.254Z,1.70
2019-06-07T19:54:20.310Z,1.47
2019-06-07T19:56:47.179Z,2.63
2019-06-07T19:59:14.419Z,1.67
2019-06-07T20:01:41.359Z,4.30
2019-06-07T20:04:08.400Z,2.10
2019-06-07T20:06:35.325Z,2.67
2019-06-07T20:09:02.906Z,2.50
2019-06-07T20:11:30.228Z,2.90
2019-06-07T20:13:58.486Z,2.67
2019-06-07T20:16:25.414Z,1.90
2019-06-07T20:18:52.403Z,3.07
2019-06-07T20:21:19.619Z,2.63
2019-06-07T20:23:46.888Z,2.87
2019-06-07T20:26:13.853Z,1.67
2019-06-07T20:28:40.715Z,2.90
2019-06-07T20:31:08.206Z,3.00
2019-06-07T20:33:35.418Z,2.27
2019-06-07T20:36:02.950Z,1.60
2019-06-07T20:38:29.833Z,1.33
2019-06-07T20:40:57.068Z,4.20
2019-06-07T20:43:24.300Z,2.53
2019-06-07T20:45:51.310Z,2.23
2019-06-07T20:48:18.350Z,3.83
2019-06-07T20:50:45.722Z,2.83
2019-06-07T20:53:12.830Z,2.10
2019-06-07T20:55:39.730Z,2.27
2019-06-07T20:58:07.306Z,3.33
2019-06-07T21:00:34.276Z,1.97
2019-06-07T21:03:01.278Z,2.50
2019-06-07T21:05:28.504Z,1.30
2019-06-07T21:07:55.633Z,1.63
2019-06-07T21:10:22.878Z,1.10
2019-06-07T21:12:49.656Z,1.77
2019-06-07T21:15:16.924Z,1.40
2019-06-07T21:17:44.334Z,2.27
2019-06-07T21:20:14.447Z,3.27
2019-06-07T21:22:41.236Z,1.63
2019-06-07T21:25:09.539Z,1.60
2019-06-07T21:27:36.808Z,2.10
2019-06-07T21:30:05.144Z,2.27
2019-06-07T21:32:32.524Z,1.07
2019-06-07T21:35:00.022Z,4.33
2019-06-07T21:37:27.284Z,1.70
2019-06-07T21:39:54.342Z,1.63
2019-06-07T21:42:21.810Z,2.30
2019-06-07T21:44:48.813Z,1.40
2019-06-07T21:47:15.925Z,3.00
2019-06-07T21:49:43.206Z,2.87
2019-06-07T21:52:10.777Z,1.30
2019-06-07T21:54:38.415Z,1.60
2019-06-07T21:57:06.920Z,1.27
2019-06-07T21:59:34.046Z,2.27
2019-06-07T22:02:01.060Z,1.50
2019-06-07T22:04:28.704Z,1.67
2019-06-07T22:06:55.543Z,1.63
2019-06-07T22:09:22.396Z,3.40
2019-06-07T22:11:49.574Z,1.87
2019-06-07T22:14:16.924Z,2.40
2019-06-07T22:16:43.988Z,1.40
2019-06-07T22:19:10.962Z,1.40
2019-06-07T22:21:38.086Z,2.27
2019-06-07T22:24:06.701Z,1.53
2019-06-07T22:26:33.978Z,2.70
2019-06-07T22:29:00.947Z,2.30
2019-06-07T22:31:30.994Z,1.73
2019-06-07T22:33:57.294Z,1.50
2019-06-07T22:36:25.074Z,2.37
2019-06-07T22:38:52.270Z,2.40
2019-06-07T22:41:19.262Z,2.00
2019-06-07T22:43:46.216Z,1.10
2019-06-07T22:46:13.127Z,3.63
2019-06-07T22:48:40.090Z,1.23
2019-06-07T22:51:10.510Z,1.67
2019-06-07T22:53:40.911Z,2.67
2019-06-07T22:56:16.011Z,1.27
2019-06-07T22:58:43.850Z,1.67
2019-06-07T23:01:10.699Z,1.50
2019-06-07T23:03:37.752Z,1.73
2019-06-07T23:06:04.661Z,1.03
2019-06-07T23:08:31.555Z,1.57
2019-06-07T23:10:58.536Z,2.80
2019-06-07T23:13:25.512Z,2.40
2019-06-07T23:15:52.667Z,1.93
2019-06-07T23:18:19.830Z,1.17
2019-06-07T23:20:47.261Z,1.10
2019-06-07T23:23:14.928Z,1.30
2019-06-07T23:25:42.116Z,2.03
2019-06-07T23:28:10.241Z,2.27
2019-06-07T23:30:37.627Z,1.90
2019-06-07T23:33:04.489Z,1.60
2019-06-07T23:35:31.774Z,1.40
2019-06-07T23:37:59.039Z,3.07
2019-06-07T23:40:26.368Z,2.53
2019-06-07T23:42:53.378Z,0.90
2019-06-07T23:45:21.604Z,2.63
2019-06-07T23:47:48.807Z,1.40
2019-06-07T23:50:15.754Z,1.83
2019-06-07T23:52:42.888Z,1.97
2019-06-07T23:55:11.839Z,1.93
2019-06-07T23:57:38.855Z,2.53
